Terminal Aerodrome Forecast
Issued by NWS

Home | Current Version | Previous Version | Text Only | Print | Product List | Glossary On
Versions: 1 2 3 4 5 6 7 8 9 10 11 12 13 14 15 16
000
FTUS46 KSEW 221700
TAFOLM
TAF
KOLM 221720Z 2218/2318 19006KT P6SM FEW010 SCT025 BKN035
      TEMPO 2218/2220 SCT010 OVC025
     FM222000 22006KT P6SM SCT025 BKN035 OVC050
     FM230300 VRB03KT P6SM -SHRA SCT035 BKN070 OVC120
     FM230900 VRB03KT P6SM VCSH OVC035
     FM231700 15007KT P6SM -RA OVC025=

USA.gov is the U.S. government's official web portal to all federal, state and local government web resources and services.